createdAt,value
2018-11-12T06:40:28.724Z,8.70
2018-11-12T06:50:32.652Z,5.77
2018-11-12T06:53:38.235Z,5.07
2018-11-12T08:48:58.697Z,10.93
2018-11-12T09:49:47.090Z,8.83
2018-11-12T09:52:28.063Z,8.13
2018-11-12T10:14:48.129Z,8.30
2018-11-12T10:17:51.238Z,6.00
2018-11-12T10:20:30.065Z,6.67
2018-11-12T10:23:10.884Z,6.40
2018-11-12T10:35:23.455Z,5.33
2018-11-12T10:43:20.146Z,4.93
2018-11-12T11:19:52.383Z,3.80
2018-11-12T11:58:11.402Z,3.90
2018-11-12T12:01:02.891Z,3.80
2018-11-12T12:09:14.146Z,3.20
2018-11-12T12:22:24.237Z,3.33
2018-11-12T12:28:19.709Z,4.07
2018-11-12T13:37:35.438Z,2.87
2018-11-12T13:45:22.867Z,2.13
2018-11-12T13:52:09.147Z,3.10
2018-11-12T15:34:49.787Z,2.07
2018-11-12T16:46:35.472Z,3.13
2018-11-12T18:00:59.011Z,7.63
2018-11-12T18:03:44.326Z,5.70
2018-11-12T18:06:27.347Z,7.73
2018-11-12T18:08:59.412Z,8.70
2018-11-12T18:11:31.890Z,10.07
2018-11-12T18:14:05.031Z,11.70
2018-11-12T18:16:38.888Z,10.20
2018-11-12T18:19:33.585Z,8.73
2018-11-12T18:22:34.939Z,10.23
2018-11-12T18:25:32.196Z,10.77
2018-11-12T18:44:01.307Z,9.17
2018-11-12T18:46:33.063Z,9.00
2018-11-12T18:49:11.009Z,10.77
2018-11-12T18:51:46.062Z,7.43
2018-11-12T18:54:29.146Z,7.37
2018-11-12T18:57:03.959Z,6.23
2018-11-12T18:59:39.909Z,5.57
2018-11-12T19:06:01.017Z,6.90
2018-11-12T19:08:38.648Z,9.83
2018-11-12T19:11:38.510Z,8.27
2018-11-12T19:14:17.702Z,8.63
2018-11-12T19:28:29.549Z,11.50
2018-11-12T19:34:50.620Z,10.10
2018-11-12T19:50:00.452Z,8.90
2018-11-12T19:52:35.695Z,11.33
2018-11-12T19:55:19.432Z,11.07
2018-11-12T19:57:52.912Z,11.97
2018-11-12T20:00:40.773Z,11.70
2018-11-12T20:06:21.871Z,10.43
2018-11-12T20:09:18.716Z,12.20
2018-11-12T20:12:12.594Z,9.87
2018-11-12T20:14:56.334Z,10.63
2018-11-12T20:17:31.164Z,7.23
2018-11-12T20:20:05.835Z,8.17
2018-11-12T20:22:38.222Z,8.00
2018-11-12T20:25:15.204Z,12.43
2018-11-12T20:27:49.976Z,12.67
2018-11-12T20:30:49.589Z,11.93
2018-11-12T20:33:35.889Z,8.60
2018-11-12T20:36:08.673Z,6.00
2018-11-12T20:38:46.279Z,5.80
2018-11-12T20:41:21.514Z,6.00
2018-11-12T20:44:00.444Z,5.43
2018-11-12T20:46:32.322Z,4.73
2018-11-12T20:49:08.344Z,6.37
2018-11-12T20:51:46.465Z,5.43
2018-11-12T20:54:40.264Z,4.87
2018-11-12T20:57:30.783Z,6.43
2018-11-12T21:00:12.405Z,4.90
2018-11-12T21:02:46.835Z,5.07
2018-11-12T21:05:42.287Z,6.40
2018-11-12T21:08:20.939Z,5.50
2018-11-12T21:10:57.867Z,5.13
2018-11-12T21:13:39.457Z,4.43
2018-11-12T21:50:14.226Z,5.10
2018-11-12T21:53:01.590Z,8.47
2018-11-12T21:55:47.747Z,7.53
2018-11-12T21:58:19.690Z,6.33
2018-11-12T22:04:45.664Z,8.50
2018-11-12T22:07:22.234Z,10.80
2018-11-12T22:09:56.122Z,8.17
2018-11-12T22:12:28.315Z,8.47
2018-11-12T22:15:00.389Z,7.10
2018-11-12T22:17:33.808Z,5.60
2018-11-12T22:20:06.765Z,9.07
2018-11-12T22:22:40.882Z,8.90
2018-11-12T22:31:58.330Z,7.87
